Funk Island Bank: Past 24 Hour Conditions

 

Corner Brook

02:30 AM NDT 21 October 2014
This table is a summary of hourly weather conditions for the past 24 hours.
Date / Time
(NDT)
Wind(knots) Conditions Visibility(km) Pressure(kPa) Air tempC) Relative humidity(%) Dew pointC)
21 October 2014
2:30 WSW 14 gust 21 N/A N/A 100.5 5 86 3
1:30 WSW 13 gust 23 N/A N/A 100.4 4 88 3
0:30 SW 12 gust 22 N/A N/A 100.3 5 88 3
20 October 2014
23:30 WSW 12 gust 27 N/A N/A 100.2 4 87 2
22:30 WSW 14 gust 23 N/A N/A 100.1 5 86 3
21:30 WSW 12 gust 20 N/A N/A 100.1 5 85 3
20:30 SW 11 gust 18 N/A N/A 100.0 5 82 2
19:30 SW 14 gust 21 N/A N/A 99.9 5 83 2
18:30 SW 13 gust 22 N/A N/A 99.8 5 83 2
17:30 WSW 18 gust 31 N/A N/A 99.7 6 80 3
16:30 WSW 20 gust 28 N/A N/A 99.6 6 82 3
15:30 SW 11 gust 18 N/A N/A 99.5 6 89 5
14:30 WSW 17 gust 23 N/A N/A 99.4 6 85 4
13:30 WSW 15 N/A N/A 99.2 8 84 6
12:30 WSW 14 gust 24 N/A N/A 99.0 10 84 7
11:30 SSW 16 gust 29 N/A N/A 98.5 14 87 12
10:30 SE 7 N/A N/A 98.4 17 84 14
9:30 ESE 9 gust 18 N/A N/A 98.6 17 85 14
8:30 ESE 6 N/A N/A 98.9 16 91 14
7:30 E 4 N/A N/A 99.1 13 93 12
6:30 ESE 5 N/A N/A 99.4 14 89 12
5:30 E 9 gust 15 N/A N/A 99.5 13 91 11
4:30 ENE 6 N/A N/A 99.8 13 91 11
3:30 ESE 4 N/A N/A 100.1 13 90 11
2:30 ESE 3 N/A N/A 100.3 14 88 12
 
Map of Atlantic - Newfoundland marine weather areas Southwestern Grand Banks - 44138 Banquereau - 44139 Tail of the Bank - 44140 Nickerson Bank - 44251 Northeast Burgeo Bank - 44255 Blanc-Sablon Airport Cap Whittle Chevery Natashquan Airport Heath Point Miscou Island Grand Étang Ingonish Beach North Mountain St.Paul Island J.A. Douglas McCurdy Sydney Airport Charlottetown Airport East Point North Cape Argentia Bonavista Burgeo Cape Race Corner Brook Daniel's Harbour Englee Ferolle Point La Scie Port aux Basques Rocky Harbour Sagona Island St. Anthony Airport St. John's Int'l Airport St. Lawrence Stephenville Airport Twillingate Winterland Wreckhouse Cartwright Airport Mary's Harbour Grates Cove Pool's Island Marticot Island Long Pond Îles de la Madeleine Airport
Legend: buoyBuoy land stationLand Station